Time,TemperatureF,DewpointF,PressureIn,WindDirection,WindDirectionDegrees,WindSpeedMPH,WindSpeedGustMPH,Humidity,HourlyPrecipIn,Conditions,Clouds,dailyrainin,SoftwareType,DateUTC
2013-06-02 00:01:00,41.0,31.0,30.33,SSE,159,1.0,3.0,66,0.00,,,0.00,,2013-06-02 06:01:00,
2013-06-02 00:12:00,41.0,30.0,30.32,SSE,159,0.0,3.0,64,0.00,,,0.00,,2013-06-02 06:12:00,
2013-06-02 00:21:00,41.0,30.0,30.32,SSE,159,0.0,3.0,64,0.00,,,0.00,,2013-06-02 06:21:00,
2013-06-02 00:32:00,41.0,29.0,30.31,SSW,195,3.0,6.0,63,0.00,,,0.00,,2013-06-02 06:32:00,
2013-06-02 00:41:00,41.0,29.0,30.31,SSW,195,3.0,6.0,63,0.00,,,0.00,,2013-06-02 06:41:00,
2013-06-02 00:52:00,41.0,29.0,30.30,SW,231,5.0,9.0,63,0.00,,,0.00,,2013-06-02 06:52:00,
2013-06-02 01:01:00,42.0,30.0,30.29,WSW,237,5.0,10.0,61,0.00,,,0.00,,2013-06-02 07:01:00,
2013-06-02 01:11:00,42.0,30.0,30.29,WSW,237,5.0,10.0,61,0.00,,,0.00,,2013-06-02 07:11:00,
2013-06-02 01:21:00,43.0,30.0,30.29,WSW,238,6.0,11.0,59,0.00,,,0.00,,2013-06-02 07:21:00,
2013-06-02 01:31:00,43.0,30.0,30.28,SW,232,5.0,12.0,59,0.00,,,0.00,,2013-06-02 07:31:00,
2013-06-02 01:42:00,42.0,30.0,30.29,SW,236,6.0,10.0,61,0.00,,,0.00,,2013-06-02 07:42:00,
2013-06-02 01:52:00,42.0,30.0,30.29,SW,236,6.0,10.0,61,0.00,,,0.00,,2013-06-02 07:52:00,
2013-06-02 02:01:00,42.0,30.0,30.29,West,269,5.0,9.0,61,0.00,,,0.00,,2013-06-02 08:01:00,
2013-06-02 02:11:00,42.0,30.0,30.29,SSW,202,5.0,9.0,61,0.00,,,0.00,,2013-06-02 08:11:00,
2013-06-02 02:21:00,42.0,30.0,30.29,SSW,202,5.0,9.0,61,0.00,,,0.00,,2013-06-02 08:21:00,
2013-06-02 02:31:00,42.0,29.0,30.27,WSW,252,7.0,13.0,60,0.00,,,0.00,,2013-06-02 08:31:00,
2013-06-02 02:41:00,41.0,29.0,30.28,SW,236,6.0,13.0,61,0.00,,,0.00,,2013-06-02 08:41:00,
2013-06-02 02:52:00,41.0,29.0,30.28,SW,236,6.0,13.0,61,0.00,,,0.00,,2013-06-02 08:52:00,
2013-06-02 03:01:00,40.0,29.0,30.27,WSW,252,1.0,11.0,64,0.00,,,0.00,,2013-06-02 09:01:00,
2013-06-02 03:11:00,39.0,28.0,30.27,West,259,9.0,14.0,65,0.00,,,0.00,,2013-06-02 09:11:00,
2013-06-02 03:21:00,39.0,28.0,30.27,West,259,9.0,14.0,65,0.00,,,0.00,,2013-06-02 09:21:00,
2013-06-02 03:33:00,39.0,28.0,30.27,SW,232,3.0,13.0,64,0.00,,,0.00,,2013-06-02 09:33:00,
2013-06-02 03:42:00,39.0,28.0,30.27,SW,232,3.0,13.0,64,0.00,,,0.00,,2013-06-02 09:42:00,
2013-06-02 03:53:00,40.0,29.0,30.25,SSW,211,8.0,13.0,64,0.00,,,0.00,,2013-06-02 09:53:00,
2013-06-02 04:02:00,40.0,29.0,30.25,South,180,8.0,13.0,64,0.00,,,0.00,,2013-06-02 10:02:00,
2013-06-02 04:12:00,40.0,29.0,30.24,SW,227,0.0,13.0,64,0.00,,,0.00,,2013-06-02 10:12:00,
2013-06-02 04:22:00,40.0,29.0,30.24,SW,227,0.0,13.0,64,0.00,,,0.00,,2013-06-02 10:22:00,
2013-06-02 04:32:00,40.0,29.0,30.26,SW,219,5.0,9.0,64,0.00,,,0.00,,2013-06-02 10:32:00,
2013-06-02 04:42:00,40.0,29.0,30.26,SW,219,5.0,9.0,64,0.00,,,0.00,,2013-06-02 10:42:00,
2013-06-02 04:52:00,39.0,28.0,30.25,SW,229,6.0,12.0,64,0.00,,,0.00,,2013-06-02 10:52:00,
2013-06-02 05:02:00,37.0,27.0,30.24,SW,215,8.0,14.0,67,0.00,,,0.00,,2013-06-02 11:02:00,
2013-06-02 05:12:00,37.0,27.0,30.24,SW,215,8.0,14.0,67,0.00,,,0.00,,2013-06-02 11:12:00,
2013-06-02 05:21:00,34.0,26.0,30.24,WSW,237,9.0,14.0,71,0.00,,,0.00,,2013-06-02 11:21:00,
2013-06-02 05:32:00,34.0,26.0,30.24,SSW,196,6.0,17.0,72,0.00,,,0.00,,2013-06-02 11:32:00,
2013-06-02 05:42:00,34.0,26.0,30.24,SSW,196,6.0,17.0,72,0.00,,,0.00,,2013-06-02 11:42:00,
2013-06-02 05:52:00,34.0,26.0,30.24,SSW,206,0.0,9.0,73,0.00,,,0.00,,2013-06-02 11:52:00,
2013-06-02 06:01:00,34.0,27.0,30.24,SSW,209,6.0,13.0,74,0.00,,,0.00,,2013-06-02 12:01:00,
2013-06-02 06:11:00,34.0,27.0,30.24,SSW,209,6.0,13.0,74,0.00,,,0.00,,2013-06-02 12:11:00,
2013-06-02 06:21:00,35.0,27.0,30.24,SSW,211,9.0,13.0,72,0.00,,,0.00,,2013-06-02 12:21:00,
2013-06-02 06:31:00,36.0,28.0,30.23,SSW,200,8.0,11.0,71,0.00,,,0.00,,2013-06-02 12:31:00,
2013-06-02 06:42:00,36.0,28.0,30.23,SSW,200,8.0,11.0,71,0.00,,,0.00,,2013-06-02 12:42:00,
2013-06-02 06:52:00,37.0,27.0,30.24,SSW,208,8.0,14.0,67,0.00,,,0.00,,2013-06-02 12:52:00,
2013-06-02 07:01:00,37.0,28.0,30.24,SSW,198,7.0,13.0,69,0.00,,,0.00,,2013-06-02 13:01:00,
2013-06-02 07:11:00,37.0,28.0,30.24,SSW,198,7.0,13.0,69,0.00,,,0.00,,2013-06-02 13:11:00,
2013-06-02 07:21:00,38.0,28.0,30.23,South,184,8.0,14.0,67,0.00,,,0.00,,2013-06-02 13:21:00,
2013-06-02 07:32:00,40.0,30.0,30.23,South,182,3.0,12.0,66,0.00,,,0.00,,2013-06-02 13:32:00,
2013-06-02 07:41:00,40.0,30.0,30.23,South,182,3.0,12.0,66,0.00,,,0.00,,2013-06-02 13:41:00,
2013-06-02 07:52:00,43.0,31.0,30.24,South,191,2.0,9.0,62,0.00,,,0.00,,2013-06-02 13:52:00,
2013-06-02 08:01:00,45.0,32.0,30.22,South,186,6.0,11.0,60,0.00,,,0.00,,2013-06-02 14:01:00,
2013-06-02 08:11:00,50.0,33.0,30.23,South,178,6.0,9.0,51,0.00,,,0.00,,2013-06-02 14:11:00,
2013-06-02 08:21:00,50.0,33.0,30.23,South,178,6.0,9.0,51,0.00,,,0.00,,2013-06-02 14:21:00,
2013-06-02 08:32:00,52.0,34.0,30.22,South,186,5.0,9.0,50,0.00,,,0.00,,2013-06-02 14:32:00,
2013-06-02 08:42:00,52.0,34.0,30.22,South,186,5.0,9.0,50,0.00,,,0.00,,2013-06-02 14:42:00,
2013-06-02 08:52:00,57.0,32.0,30.21,WSW,245,10.0,16.0,39,0.00,,,0.00,,2013-06-02 14:52:00,
2013-06-02 09:01:00,60.0,32.0,30.20,West,269,7.0,15.0,34,0.00,,,0.00,,2013-06-02 15:01:00,
2013-06-02 09:11:00,60.0,32.0,30.20,West,269,7.0,15.0,34,0.00,,,0.00,,2013-06-02 15:11:00,
2013-06-02 09:21:00,59.0,32.0,30.21,SSW,192,7.0,11.0,36,0.00,,,0.00,,2013-06-02 15:21:00,
2013-06-02 09:32:00,61.0,32.0,30.20,SSE,148,5.0,11.0,34,0.00,,,0.00,,2013-06-02 15:32:00,
2013-06-02 09:43:00,63.0,32.0,30.19,South,184,7.0,14.0,31,0.00,,,0.00,,2013-06-02 15:43:00,
2013-06-02 09:53:00,63.0,32.0,30.19,South,184,7.0,14.0,31,0.00,,,0.00,,2013-06-02 15:53:00,
2013-06-02 10:03:00,63.0,32.0,30.19,South,176,7.0,17.0,31,0.00,,,0.00,,2013-06-02 16:03:00,
2013-06-02 10:13:00,63.0,32.0,30.19,South,176,7.0,17.0,31,0.00,,,0.00,,2013-06-02 16:13:00,
2013-06-02 10:23:00,64.0,32.0,30.19,SSE,162,6.0,15.0,30,0.00,,,0.00,,2013-06-02 16:23:00,
2013-06-02 10:33:00,66.0,30.0,30.16,NW,314,6.0,15.0,26,0.00,,,0.00,,2013-06-02 16:33:00,
2013-06-02 10:42:00,66.0,30.0,30.16,NW,314,6.0,15.0,26,0.00,,,0.00,,2013-06-02 16:42:00,
2013-06-02 10:52:00,67.0,29.0,30.17,SW,219,12.0,17.0,24,0.00,,,0.00,,2013-06-02 16:52:00,
2013-06-02 11:02:00,67.0,29.0,30.17,WNW,290,7.0,14.0,24,0.00,,,0.00,,2013-06-02 17:02:00,
2013-06-02 11:12:00,68.0,30.0,30.16,SSW,210,5.0,14.0,24,0.00,,,0.00,,2013-06-02 17:12:00,
2013-06-02 11:22:00,68.0,30.0,30.16,SSW,210,5.0,14.0,24,0.00,,,0.00,,2013-06-02 17:22:00,
2013-06-02 11:32:00,68.0,29.0,30.16,SSW,207,3.0,13.0,23,0.00,,,0.00,,2013-06-02 17:32:00,
2013-06-02 11:42:00,69.0,30.0,30.15,SW,215,7.0,21.0,23,0.00,,,0.00,,2013-06-02 17:42:00,
2013-06-02 11:52:00,69.0,30.0,30.15,SW,215,7.0,21.0,23,0.00,,,0.00,,2013-06-02 17:52:00,
2013-06-02 12:01:00,69.0,30.0,30.15,West,279,1.0,15.0,23,0.00,,,0.00,,2013-06-02 18:01:00,
2013-06-02 12:11:00,70.0,30.0,30.15,West,280,6.0,15.0,23,0.00,,,0.00,,2013-06-02 18:11:00,
2013-06-02 12:21:00,70.0,30.0,30.15,West,280,6.0,15.0,23,0.00,,,0.00,,2013-06-02 18:21:00,
2013-06-02 12:32:00,71.0,30.0,30.15,NW,323,3.0,17.0,22,0.00,,,0.00,,2013-06-02 18:32:00,
2013-06-02 12:42:00,71.0,30.0,30.13,South,190,10.0,21.0,22,0.00,,,0.00,,2013-06-02 18:42:00,
2013-06-02 12:52:00,71.0,30.0,30.13,South,190,10.0,21.0,22,0.00,,,0.00,,2013-06-02 18:52:00,
2013-06-02 13:01:00,71.0,30.0,30.13,SW,225,4.0,14.0,22,0.00,,,0.00,,2013-06-02 19:01:00,
2013-06-02 13:11:00,71.0,30.0,30.13,SW,225,4.0,14.0,22,0.00,,,0.00,,2013-06-02 19:11:00,
2013-06-02 13:21:00,72.0,29.0,30.12,ESE,110,4.0,17.0,20,0.00,,,0.00,,2013-06-02 19:21:00,
2013-06-02 13:32:00,72.0,30.0,30.11,West,263,5.0,16.0,21,0.00,,,0.00,,2013-06-02 19:32:00,
2013-06-02 13:42:00,72.0,30.0,30.11,West,263,5.0,16.0,21,0.00,,,0.00,,2013-06-02 19:42:00,
2013-06-02 13:52:00,73.0,28.0,30.11,NW,316,10.0,20.0,19,0.00,,,0.00,,2013-06-02 19:52:00,
2013-06-02 14:02:00,73.0,27.0,30.10,West,264,10.0,20.0,18,0.00,,,0.00,,2013-06-02 20:02:00,
2013-06-02 14:11:00,73.0,27.0,30.10,West,264,10.0,20.0,18,0.00,,,0.00,,2013-06-02 20:11:00,
2013-06-02 14:21:00,75.0,29.0,30.10,NW,311,9.0,22.0,18,0.00,,,0.00,,2013-06-02 20:21:00,
2013-06-02 14:32:00,74.0,29.0,30.10,WSW,237,9.0,17.0,19,0.00,,,0.00,,2013-06-02 20:32:00,
2013-06-02 14:42:00,74.0,29.0,30.10,WSW,237,9.0,17.0,19,0.00,,,0.00,,2013-06-02 20:42:00,
2013-06-02 14:52:00,75.0,29.0,30.08,WNW,301,8.0,17.0,18,0.00,,,0.00,,2013-06-02 20:52:00,
2013-06-02 15:01:00,75.0,31.0,30.08,SW,215,5.0,16.0,20,0.00,,,0.00,,2013-06-02 21:01:00,
2013-06-02 15:11:00,75.0,29.0,30.07,West,267,6.0,13.0,18,0.00,,,0.00,,2013-06-02 21:11:00,
2013-06-02 15:21:00,75.0,29.0,30.07,West,267,6.0,13.0,18,0.00,,,0.00,,2013-06-02 21:21:00,
2013-06-02 15:33:00,75.0,29.0,30.07,SSW,194,11.0,22.0,18,0.00,,,0.00,,2013-06-02 21:33:00,
2013-06-02 15:42:00,75.0,29.0,30.07,SSW,194,11.0,22.0,18,0.00,,,0.00,,2013-06-02 21:42:00,
2013-06-02 15:53:00,76.0,29.0,30.06,WNW,290,12.0,21.0,18,0.00,,,0.00,,2013-06-02 21:53:00,
2013-06-02 16:03:00,74.0,28.0,30.06,South,188,11.0,15.0,18,0.00,,,0.00,,2013-06-02 22:03:00,
2013-06-02 16:12:00,74.0,28.0,30.06,South,188,11.0,15.0,18,0.00,,,0.00,,2013-06-02 22:12:00,
2013-06-02 16:23:00,72.0,27.0,30.06,South,190,2.0,14.0,19,0.00,,,0.00,,2013-06-02 22:23:00,
2013-06-02 16:33:00,72.0,27.0,30.06,WSW,255,1.0,17.0,19,0.00,,,0.00,,2013-06-02 22:33:00,
2013-06-02 16:42:00,72.0,27.0,30.06,WSW,255,1.0,17.0,19,0.00,,,0.00,,2013-06-02 22:42:00,
2013-06-02 16:52:00,72.0,27.0,30.05,West,266,4.0,13.0,19,0.00,,,0.00,,2013-06-02 22:52:00,
2013-06-02 17:02:00,73.0,28.0,30.04,SSW,193,5.0,13.0,19,0.00,,,0.00,,2013-06-02 23:02:00,
2013-06-02 17:12:00,73.0,28.0,30.04,SSW,193,5.0,13.0,19,0.00,,,0.00,,2013-06-02 23:12:00,
2013-06-02 17:22:00,74.0,29.0,30.05,SSW,211,5.0,17.0,19,0.00,,,0.00,,2013-06-02 23:22:00,
2013-06-02 17:32:00,74.0,30.0,30.05,WSW,250,10.0,16.0,20,0.00,,,0.00,,2013-06-02 23:32:00,
2013-06-02 17:42:00,74.0,30.0,30.05,WSW,250,10.0,16.0,20,0.00,,,0.00,,2013-06-02 23:42:00,
2013-06-02 17:52:00,73.0,28.0,30.04,WSW,244,10.0,16.0,19,0.00,,,0.00,,2013-06-02 23:52:00,
2013-06-02 18:01:00,73.0,30.0,30.03,SSW,209,14.0,23.0,20,0.00,,,0.00,,2013-06-03 00:01:00,
2013-06-02 18:11:00,72.0,27.0,30.00,South,177,17.0,23.0,19,0.00,,,0.00,,2013-06-03 00:11:00,
2013-06-02 18:21:00,72.0,27.0,30.00,South,177,17.0,23.0,19,0.00,,,0.00,,2013-06-03 00:21:00,
2013-06-02 18:32:00,72.0,29.0,30.03,SSW,195,12.0,23.0,20,0.00,,,0.00,,2013-06-03 00:32:00,
2013-06-02 18:42:00,73.0,27.0,30.04,West,272,8.0,17.0,18,0.00,,,0.00,,2013-06-03 00:42:00,
2013-06-02 18:52:00,73.0,27.0,30.04,West,272,8.0,17.0,18,0.00,,,0.00,,2013-06-03 00:52:00,
2013-06-02 19:01:00,72.0,26.0,30.03,WSW,241,12.0,18.0,18,0.00,,,0.00,,2013-06-03 01:01:00,
2013-06-02 19:11:00,72.0,26.0,30.03,WSW,241,12.0,18.0,18,0.00,,,0.00,,2013-06-03 01:11:00,
2013-06-02 19:21:00,71.0,28.0,30.02,SW,221,7.0,15.0,20,0.00,,,0.00,,2013-06-03 01:21:00,
2013-06-02 19:32:00,70.0,27.0,30.02,SW,221,5.0,14.0,20,0.00,,,0.00,,2013-06-03 01:32:00,
2013-06-02 19:42:00,70.0,27.0,30.02,SW,221,5.0,14.0,20,0.00,,,0.00,,2013-06-03 01:42:00,
2013-06-02 19:52:00,69.0,27.0,30.01,SW,214,8.0,13.0,21,0.00,,,0.00,,2013-06-03 01:52:00,
2013-06-02 20:02:00,69.0,27.0,30.02,SW,220,3.0,18.0,21,0.00,,,0.00,,2013-06-03 02:02:00,
2013-06-02 20:12:00,69.0,27.0,30.02,SW,220,3.0,18.0,21,0.00,,,0.00,,2013-06-03 02:12:00,
2013-06-02 20:22:00,68.0,28.0,30.02,SSW,199,6.0,13.0,22,0.00,,,0.00,,2013-06-03 02:22:00,
2013-06-02 20:32:00,67.0,28.0,30.02,SW,226,7.0,11.0,23,0.00,,,0.00,,2013-06-03 02:32:00,
2013-06-02 20:42:00,67.0,28.0,30.02,SW,226,7.0,11.0,23,0.00,,,0.00,,2013-06-03 02:42:00,
2013-06-02 20:52:00,66.0,28.0,30.01,SW,229,3.0,10.0,24,0.00,,,0.00,,2013-06-03 02:52:00,
2013-06-02 21:02:00,66.0,28.0,30.01,SW,234,7.0,11.0,24,0.00,,,0.00,,2013-06-03 03:02:00,
2013-06-02 21:12:00,64.0,27.0,30.02,SSW,205,6.0,12.0,25,0.00,,,0.00,,2013-06-03 03:12:00,
2013-06-02 21:22:00,64.0,27.0,30.02,SSW,205,6.0,12.0,25,0.00,,,0.00,,2013-06-03 03:22:00,
2013-06-02 21:33:00,63.0,28.0,30.03,SSW,211,2.0,7.0,26,0.00,,,0.00,,2013-06-03 03:33:00,
2013-06-02 21:43:00,63.0,28.0,30.03,SSW,211,2.0,7.0,26,0.00,,,0.00,,2013-06-03 03:43:00,
2013-06-02 21:53:00,61.0,26.0,30.02,SSW,196,3.0,7.0,26,0.00,,,0.00,,2013-06-03 03:53:00,
2013-06-02 22:03:00,60.0,26.0,30.02,SW,235,3.0,7.0,27,0.00,,,0.00,,2013-06-03 04:03:00,
2013-06-02 22:12:00,60.0,26.0,30.02,SW,235,3.0,7.0,27,0.00,,,0.00,,2013-06-03 04:12:00,
2013-06-02 22:23:00,62.0,25.0,30.03,West,259,6.0,11.0,24,0.00,,,0.00,,2013-06-03 04:23:00,
2013-06-02 22:33:00,62.0,24.0,30.02,WSW,242,3.0,11.0,23,0.00,,,0.00,,2013-06-03 04:33:00,
2013-06-02 22:42:00,62.0,23.0,30.02,SW,234,6.0,13.0,22,0.00,,,0.00,,2013-06-03 04:42:00,
2013-06-02 22:53:00,62.0,23.0,30.02,SW,234,6.0,13.0,22,0.00,,,0.00,,2013-06-03 04:53:00,
2013-06-02 23:02:00,62.0,23.0,30.02,WSW,246,5.0,13.0,22,0.00,,,0.00,,2013-06-03 05:02:00,
2013-06-02 23:12:00,60.0,22.0,30.03,SW,232,2.0,10.0,23,0.00,,,0.00,,2013-06-03 05:12:00,
2013-06-02 23:22:00,60.0,22.0,30.03,SW,232,2.0,10.0,23,0.00,,,0.00,,2013-06-03 05:22:00,
2013-06-02 23:32:00,58.0,23.0,30.03,South,175,3.0,12.0,26,0.00,,,0.00,,2013-06-03 05:32:00,
2013-06-02 23:42:00,58.0,23.0,30.03,South,175,3.0,12.0,26,0.00,,,0.00,,2013-06-03 05:42:00,
2013-06-02 23:52:00,54.0,22.0,30.01,South,191,4.0,11.0,28,0.00,,,0.00,,2013-06-03 05:52:00,